Time;durP1;ratioP1;P1;durP2;ratioP2;P2;SDS_P1;SDS_P2;PMS_P1;PMS_P2;Temp;Humidity;BMP_temperature;BMP_pressure;BME280_temperature;BME280_humidity;BME280_pressure;Samples;Min_cycle;Max_cycle;Signal;HPM_P1;HPM_P2
2022/10/07 00:01:57;;;;;;;7.50;5.07;;;6.60;99.90;;;;;;5115375;28;20231;-68
2022/10/07 00:04:23;;;;;;;9.70;5.20;;;6.60;99.90;;;;;;5115668;28;20188;-68
2022/10/07 00:06:50;;;;;;;6.83;4.90;;;6.60;99.90;;;;;;5123173;27;20203;-68
2022/10/07 00:09:15;;;;;;;10.63;5.63;;;6.60;99.90;;;;;;5137067;27;20172;-64
2022/10/07 00:11:41;;;;;;;7.70;5.10;;;6.60;99.90;;;;;;5137029;27;20184;-64
2022/10/07 00:14:08;;;;;;;10.47;5.53;;;6.60;99.90;;;;;;5136946;27;20164;-63
2022/10/07 00:16:37;;;;;;;6.93;5.30;;;6.50;99.90;;;;;;5136888;27;20168;-64
2022/10/07 00:19:06;;;;;;;7.37;5.23;;;6.40;99.90;;;;;;5137087;27;20175;-64
2022/10/07 00:21:34;;;;;;;9.87;5.20;;;6.40;99.90;;;;;;5137166;27;20227;-63
2022/10/07 00:24:00;;;;;;;8.33;5.53;;;6.50;99.90;;;;;;5136985;27;20541;-63
2022/10/07 00:26:29;;;;;;;7.97;4.80;;;6.50;99.90;;;;;;5136728;27;20200;-63
2022/10/07 00:28:55;;;;;;;9.20;5.50;;;6.40;99.90;;;;;;5123154;27;20187;-63
2022/10/07 00:31:23;;;;;;;10.63;5.40;;;6.40;99.90;;;;;;5115926;28;20185;-64
2022/10/07 00:33:50;;;;;;;7.93;4.67;;;6.40;99.90;;;;;;5116133;28;20213;-63
2022/10/07 00:36:19;;;;;;;8.97;5.07;;;6.40;99.90;;;;;;5117595;27;20168;-63
2022/10/07 00:38:50;;;;;;;6.73;5.53;;;6.40;99.90;;;;;;5136794;27;20168;-63
2022/10/07 00:41:19;;;;;;;12.30;5.00;;;6.40;99.90;;;;;;5136482;27;20207;-63
2022/10/07 00:43:45;;;;;;;12.53;5.97;;;6.40;99.90;;;;;;5135222;27;20176;-63
2022/10/07 00:46:15;;;;;;;5.90;5.20;;;6.40;99.90;;;;;;5136384;27;20199;-63
2022/10/07 00:48:42;;;;;;;9.57;5.30;;;6.50;99.90;;;;;;5136125;27;20168;-63
2022/10/07 00:51:09;;;;;;;6.20;5.00;;;6.40;99.90;;;;;;5134961;27;20693;-63
2022/10/07 00:53:37;;;;;;;8.60;5.17;;;6.30;99.90;;;;;;5134820;27;20176;-63
2022/10/07 00:56:05;;;;;;;10.07;5.60;;;6.30;99.90;;;;;;5134955;27;20172;-63
2022/10/07 00:58:35;;;;;;;8.23;6.10;;;6.20;99.90;;;;;;5124759;27;20184;-63
2022/10/07 01:01:02;;;;;;;6.93;5.10;;;6.10;99.90;;;;;;5115451;28;20195;-63
2022/10/07 01:03:28;;;;;;;7.40;5.70;;;6.00;99.90;;;;;;5113955;28;20544;-63
2022/10/07 01:05:54;;;;;;;7.47;6.07;;;6.10;99.90;;;;;;5115480;28;20244;-63
2022/10/07 01:08:21;;;;;;;8.07;5.60;;;6.10;99.90;;;;;;5134578;27;20270;-63
2022/10/07 01:11:12;;;;;;;11.03;6.07;;;6.10;99.90;;;;;;5134644;27;20203;-63
2022/10/07 01:13:56;;;;;;;8.30;5.70;;;6.00;99.90;;;;;;5135965;27;20152;-63
2022/10/07 01:16:47;;;;;;;8.13;5.67;;;6.00;99.90;;;;;;5135777;27;20172;-63
2022/10/07 01:19:31;;;;;;;8.73;5.10;;;6.00;99.90;;;;;;5134529;27;20175;-63
2022/10/07 01:22:04;;;;;;;7.17;5.50;;;5.90;99.90;;;;;;5135382;27;20191;-63
2022/10/07 01:24:38;;;;;;;6.50;4.90;;;5.80;99.90;;;;;;5136181;27;20201;-63
2022/10/07 01:27:15;;;;;;;7.47;5.33;;;5.70;99.90;;;;;;5136046;27;20662;-63
2022/10/07 01:30:00;;;;;;;6.27;4.87;;;5.70;99.90;;;;;;5115770;27;20712;-65
2022/10/07 01:33:01;;;;;;;7.20;5.03;;;5.70;99.90;;;;;;5113418;28;20244;-65
2022/10/07 01:35:34;;;;;;;7.93;4.60;;;5.60;99.90;;;;;;5107513;28;20184;-65
2022/10/07 01:38:12;;;;;;;5.50;4.80;;;5.50;99.90;;;;;;5131152;27;20202;-65
2022/10/07 01:40:47;;;;;;;8.27;5.10;;;5.50;99.90;;;;;;5135729;27;20736;-65
2022/10/07 01:43:15;;;;;;;8.63;5.07;;;5.40;99.90;;;;;;5135635;27;20183;-68
2022/10/07 01:45:42;;;;;;;8.50;4.93;;;5.30;99.90;;;;;;5134146;27;20176;-68
2022/10/07 01:48:08;;;;;;;7.10;5.53;;;5.30;99.90;;;;;;5135175;27;20710;-68
2022/10/07 01:50:35;;;;;;;7.87;5.60;;;5.40;99.90;;;;;;5135236;27;20195;-67
2022/10/07 01:53:14;;;;;;;10.70;5.33;;;5.40;99.90;;;;;;5135142;27;20690;-68
2022/10/07 01:56:00;;;;;;;8.80;6.00;;;5.50;99.90;;;;;;5134855;27;20160;-68
2022/10/07 01:58:32;;;;;;;11.10;5.93;;;5.50;99.90;;;;;;5125501;27;20194;-68
2022/10/07 02:01:05;;;;;;;8.13;5.73;;;5.60;99.90;;;;;;5113186;28;20196;-67
2022/10/07 02:04:12;;;;;;;8.23;5.47;;;5.60;99.90;;;;;;5114479;28;20489;-68
2022/10/07 02:06:42;;;;;;;8.13;5.50;;;5.60;99.90;;;;;;5117818;27;20207;-68
2022/10/07 02:09:29;;;;;;;7.50;5.53;;;5.60;99.90;;;;;;5133844;27;20255;-68
2022/10/07 02:12:06;;;;;;;12.67;6.43;;;5.60;99.90;;;;;;5133604;27;20187;-68
2022/10/07 02:14:43;;;;;;;11.47;6.67;;;5.60;99.90;;;;;;5135013;27;20515;-68
2022/10/07 02:17:16;;;;;;;11.67;6.47;;;5.60;99.90;;;;;;5135090;27;20187;-68
2022/10/07 02:19:52;;;;;;;11.60;5.93;;;5.60;99.90;;;;;;5134769;27;20164;-68
2022/10/07 02:22:21;;;;;;;14.30;6.63;;;5.70;99.90;;;;;;5134675;27;20266;-68
2022/10/07 02:24:49;;;;;;;7.43;6.10;;;5.60;99.90;;;;;;5133380;27;20172;-68
2022/10/07 02:27:21;;;;;;;7.70;6.13;;;5.60;99.90;;;;;;5134501;27;20202;-67
2022/10/07 02:29:51;;;;;;;8.40;6.00;;;5.60;99.90;;;;;;5094047;28;20632;-68
2022/10/07 02:32:22;;;;;;;12.10;6.23;;;5.60;99.90;;;;;;5092209;28;20249;-67
2022/10/07 02:34:59;;;;;;;10.83;5.83;;;5.50;99.90;;;;;;5093706;28;20161;-67
2022/10/07 02:37:30;;;;;;;13.37;6.60;;;5.40;99.90;;;;;;5115033;28;20195;-68
2022/10/07 02:39:57;;;;;;;11.33;6.67;;;5.50;99.90;;;;;;5134819;27;20164;-68
2022/10/07 02:42:34;;;;;;;10.03;5.40;;;5.40;99.90;;;;;;5134154;27;20730;-68
2022/10/07 02:45:12;;;;;;;6.20;5.43;;;5.40;99.90;;;;;;5134564;27;20159;-68
2022/10/07 02:48:06;;;;;;;10.67;6.10;;;5.30;99.90;;;;;;5133079;28;20544;-67
2022/10/07 02:50:38;;;;;;;11.27;7.00;;;5.30;99.90;;;;;;5134343;27;20162;-68
2022/10/07 02:53:06;;;;;;;8.87;6.23;;;5.30;99.90;;;;;;5133082;28;20187;-68
2022/10/07 02:55:33;;;;;;;10.43;6.37;;;5.20;99.90;;;;;;5133035;28;20191;-67
2022/10/07 02:58:04;;;;;;;9.10;6.33;;;5.10;99.90;;;;;;5128748;27;20672;-67
2022/10/07 03:00:33;;;;;;;8.20;5.70;;;5.10;99.90;;;;;;5113765;28;20191;-68
2022/10/07 03:03:01;;;;;;;8.13;5.90;;;5.10;99.90;;;;;;5113812;28;20204;-68
2022/10/07 03:05:27;;;;;;;9.63;6.50;;;5.00;99.90;;;;;;5112471;28;20187;-68
2022/10/07 03:08:00;;;;;;;8.37;6.23;;;5.00;99.90;;;;;;5127855;28;20748;-68
2022/10/07 03:10:27;;;;;;;17.77;6.50;;;5.00;99.90;;;;;;5132878;28;20164;-67
2022/10/07 03:12:53;;;;;;;12.07;6.57;;;5.10;99.90;;;;;;5134102;27;20164;-68
2022/10/07 03:15:20;;;;;;;7.17;5.70;;;5.10;99.90;;;;;;5134301;27;20164;-67
2022/10/07 03:17:46;;;;;;;13.33;6.47;;;5.00;99.90;;;;;;5134206;27;20220;-67
2022/10/07 03:20:14;;;;;;;15.33;6.93;;;5.00;99.90;;;;;;5134091;27;20172;-68
2022/10/07 03:22:43;;;;;;;12.70;6.80;;;5.00;99.90;;;;;;5132810;28;20731;-69
2022/10/07 03:25:13;;;;;;;11.83;6.70;;;5.10;99.90;;;;;;5132879;28;20630;-69
2022/10/07 03:27:41;;;;;;;13.20;6.73;;;5.10;99.90;;;;;;5130070;28;20722;-67
2022/10/07 03:30:07;;;;;;;9.43;6.60;;;5.00;99.90;;;;;;5113656;28;20161;-68
2022/10/07 03:32:33;;;;;;;9.90;6.20;;;5.00;99.90;;;;;;5113400;28;20189;-67
2022/10/07 03:34:59;;;;;;;10.77;7.33;;;4.90;99.90;;;;;;5113616;28;20531;-68
2022/10/07 03:37:25;;;;;;;9.40;6.33;;;5.00;99.90;;;;;;5125080;28;20175;-67
2022/10/07 03:39:52;;;;;;;6.60;5.97;;;4.90;99.90;;;;;;5132764;28;20176;-68
2022/10/07 03:42:18;;;;;;;8.17;6.00;;;4.80;99.90;;;;;;5133789;27;20207;-68
2022/10/07 03:44:45;;;;;;;15.03;6.33;;;4.80;99.90;;;;;;5134303;27;20550;-68
2022/10/07 03:47:10;;;;;;;10.63;7.40;;;4.70;99.90;;;;;;5137712;27;20188;-67
2022/10/07 03:49:36;;;;;;;11.87;7.13;;;4.70;99.90;;;;;;5137577;27;20644;-68
2022/10/07 03:52:03;;;;;;;9.57;6.43;;;4.70;99.90;;;;;;5138294;27;20187;-68
2022/10/07 03:54:29;;;;;;;9.33;6.60;;;4.70;99.90;;;;;;5137677;27;20212;-68
2022/10/07 03:56:54;;;;;;;8.40;5.50;;;4.70;99.90;;;;;;5136173;27;20187;-68
2022/10/07 03:59:20;;;;;;;9.10;6.47;;;4.70;99.90;;;;;;5119341;27;20219;-68
2022/10/07 04:01:46;;;;;;;12.07;6.63;;;4.70;99.90;;;;;;5115515;28;20196;-67
2022/10/07 04:04:12;;;;;;;12.93;7.50;;;4.70;99.90;;;;;;5115473;28;20732;-68
2022/10/07 04:06:40;;;;;;;11.63;7.70;;;4.70;99.90;;;;;;5121366;27;20563;-68
2022/10/07 04:09:05;;;;;;;8.93;6.10;;;4.60;99.90;;;;;;5137645;27;20176;-68
2022/10/07 04:11:31;;;;;;;9.90;6.53;;;4.60;99.90;;;;;;5137858;27;20188;-67
2022/10/07 04:13:59;;;;;;;6.53;5.70;;;4.60;99.90;;;;;;5138367;27;20632;-67
2022/10/07 04:16:26;;;;;;;9.73;7.10;;;4.70;99.90;;;;;;5136157;27;20691;-67
2022/10/07 04:18:55;;;;;;;11.93;6.97;;;4.70;99.90;;;;;;5137258;27;20188;-68
2022/10/07 04:21:21;;;;;;;8.60;6.97;;;4.70;99.90;;;;;;5135774;27;20199;-68
2022/10/07 04:23:47;;;;;;;8.87;6.53;;;4.70;99.90;;;;;;5137030;27;20258;-68
2022/10/07 04:26:13;;;;;;;9.90;6.90;;;4.70;99.90;;;;;;5136954;27;20785;-67
2022/10/07 04:28:39;;;;;;;9.73;6.80;;;4.60;99.90;;;;;;5124451;27;20177;-73
2022/10/07 04:31:07;;;;;;;9.57;6.87;;;4.60;99.90;;;;;;5116328;28;20271;-68
2022/10/07 04:33:33;;;;;;;13.63;6.80;;;4.60;99.90;;;;;;5116063;28;20168;-67
2022/10/07 04:36:07;;;;;;;8.70;6.00;;;4.60;99.90;;;;;;5116578;28;20169;-68
2022/10/07 04:38:33;;;;;;;8.77;6.43;;;4.50;99.90;;;;;;5096065;28;20157;-67
2022/10/07 04:41:05;;;;;;;7.87;6.40;;;4.40;99.90;;;;;;5094196;28;20242;-68
2022/10/07 04:43:32;;;;;;;8.73;6.33;;;4.30;99.90;;;;;;5095809;28;20253;-68
2022/10/07 04:46:06;;;;;;;6.57;5.87;;;4.30;99.90;;;;;;5095520;28;20226;-68
2022/10/07 04:48:32;;;;;;;9.80;6.13;;;4.20;99.90;;;;;;5094207;28;20246;-68
2022/10/07 04:51:09;;;;;;;6.67;6.00;;;4.30;99.90;;;;;;5095498;28;20662;-68
2022/10/07 04:53:36;;;;;;;14.57;8.50;;;4.20;99.90;;;;;;5095730;28;20610;-68
2022/10/07 04:56:02;;;;;;;17.10;9.70;;;4.20;99.90;;;;;;5092989;28;20173;-68
2022/10/07 04:58:29;;;;;;;12.93;8.53;;;4.20;99.90;;;;;;5105007;28;20233;-68
2022/10/07 05:00:56;;;;;;;11.57;7.73;;;4.20;99.90;;;;;;5114446;28;20286;-68
2022/10/07 05:03:24;;;;;;;10.53;6.97;;;4.20;99.90;;;;;;5114171;28;20172;-68
2022/10/07 05:05:52;;;;;;;12.97;7.27;;;4.30;99.90;;;;;;5115935;28;20173;-67
2022/10/07 05:08:20;;;;;;;12.93;8.47;;;4.30;99.90;;;;;;5134458;27;20232;-68
2022/10/07 05:10:46;;;;;;;12.20;7.27;;;4.30;99.90;;;;;;5135083;27;20562;-69
2022/10/07 05:13:15;;;;;;;9.50;7.10;;;4.20;99.90;;;;;;5136137;27;20635;-67
2022/10/07 05:15:58;;;;;;;11.13;6.77;;;4.10;99.90;;;;;;5134917;27;20180;-68
2022/10/07 05:18:25;;;;;;;9.33;6.43;;;4.10;99.90;;;;;;5134680;27;20171;-68
2022/10/07 05:20:51;;;;;;;9.63;6.57;;;4.10;99.90;;;;;;5134639;27;20214;-68
2022/10/07 05:23:19;;;;;;;10.00;5.80;;;4.00;99.90;;;;;;5135875;27;20635;-68
2022/10/07 05:25:46;;;;;;;7.00;6.23;;;4.00;99.90;;;;;;5134619;27;20180;-68
2022/10/07 05:28:13;;;;;;;8.47;5.30;;;4.00;99.90;;;;;;5127167;27;20211;-68
2022/10/07 05:30:39;;;;;;;9.07;5.77;;;4.00;99.90;;;;;;5115214;28;20629;-68
2022/10/07 05:33:06;;;;;;;7.93;6.07;;;4.00;99.90;;;;;;5113563;28;20187;-67
2022/10/07 05:35:32;;;;;;;9.57;6.00;;;4.00;99.90;;;;;;5114945;28;20161;-67
2022/10/07 05:37:59;;;;;;;5.93;5.33;;;3.90;99.90;;;;;;5129349;27;20196;-68
2022/10/07 05:40:25;;;;;;;8.23;6.27;;;3.90;99.90;;;;;;5135842;27;20167;-67
2022/10/07 05:42:51;;;;;;;8.83;6.03;;;3.80;99.90;;;;;;5135170;27;20270;-68
2022/10/07 05:45:18;;;;;;;9.73;6.67;;;3.90;99.90;;;;;;5135606;27;20588;-67
2022/10/07 05:47:45;;;;;;;8.63;6.33;;;4.00;99.90;;;;;;5135097;27;20241;-68
2022/10/07 05:50:11;;;;;;;7.60;6.30;;;4.00;99.90;;;;;;5133905;27;20182;-68
2022/10/07 05:52:37;;;;;;;8.57;6.30;;;4.00;99.90;;;;;;5135041;27;20191;-68
2022/10/07 05:55:03;;;;;;;10.53;6.10;;;4.00;99.90;;;;;;5135980;27;20168;-68
2022/10/07 05:57:29;;;;;;;7.07;6.00;;;4.00;99.90;;;;;;5133233;27;20176;-67
2022/10/07 05:59:57;;;;;;;7.10;6.03;;;4.10;99.90;;;;;;5115332;28;20187;-68
2022/10/07 06:02:23;;;;;;;9.97;6.37;;;4.10;99.90;;;;;;5114896;28;20188;-67
2022/10/07 06:04:49;;;;;;;7.27;5.70;;;4.10;99.90;;;;;;5113267;28;20708;-67
2022/10/07 06:07:15;;;;;;;8.03;6.03;;;4.10;99.90;;;;;;5122599;27;20211;-67
2022/10/07 06:15:09;;;;;;;8.00;6.43;;;4.30;99.90;;;;;;5134907;27;20565;-67
2022/10/07 06:17:40;;;;;;;11.03;7.17;;;4.30;99.90;;;;;;5135284;27;20633;-67
2022/10/07 06:20:06;;;;;;;10.20;6.17;;;4.40;99.90;;;;;;5134803;27;20516;-68
2022/10/07 06:22:32;;;;;;;11.10;6.80;;;4.50;99.90;;;;;;5134798;27;20191;-63
2022/10/07 06:25:01;;;;;;;10.60;7.10;;;4.50;99.90;;;;;;5133345;27;20576;-63
2022/10/07 06:27:28;;;;;;;9.97;6.77;;;4.60;99.90;;;;;;5133582;27;20219;-63
2022/10/07 06:29:54;;;;;;;13.23;7.83;;;4.60;99.90;;;;;;5114416;28;20165;-63
2022/10/07 06:32:19;;;;;;;12.83;7.90;;;4.60;99.90;;;;;;5112382;28;20196;-63
2022/10/07 06:34:45;;;;;;;10.40;7.47;;;4.70;99.90;;;;;;5112784;28;20644;-63
2022/10/07 06:37:11;;;;;;;10.63;7.20;;;4.70;99.90;;;;;;5121891;27;20257;-63
2022/10/07 06:39:37;;;;;;;14.73;7.37;;;4.80;99.90;;;;;;5135115;27;20168;-63
2022/10/07 06:42:02;;;;;;;10.07;7.23;;;4.80;99.90;;;;;;5134415;27;20295;-63
2022/10/07 06:44:30;;;;;;;11.60;7.17;;;4.90;99.90;;;;;;5134491;27;20178;-63
2022/10/07 06:46:56;;;;;;;12.13;7.57;;;5.00;99.90;;;;;;5134453;27;20683;-64
2022/10/07 06:49:22;;;;;;;13.00;7.80;;;5.10;99.90;;;;;;5133245;28;20160;-63
2022/10/07 06:51:47;;;;;;;10.40;7.27;;;5.20;99.90;;;;;;5133153;28;20573;-63
2022/10/07 06:54:13;;;;;;;12.17;7.33;;;5.30;99.90;;;;;;5134309;27;20176;-63
2022/10/07 06:56:39;;;;;;;11.17;7.70;;;5.30;99.90;;;;;;5134734;27;20172;-63
2022/10/07 06:59:05;;;;;;;14.83;8.60;;;5.40;99.90;;;;;;5119612;27;20184;-64
2022/10/07 07:01:31;;;;;;;11.30;8.07;;;5.50;99.90;;;;;;5113739;28;20196;-64
2022/10/07 07:03:57;;;;;;;13.77;7.97;;;5.50;99.90;;;;;;5112383;28;20233;-63
2022/10/07 07:06:23;;;;;;;19.60;8.83;;;5.60;99.90;;;;;;5116772;28;20566;-65
2022/10/07 07:08:49;;;;;;;16.97;8.70;;;5.70;99.90;;;;;;5134365;27;20149;-63
2022/10/07 07:14:01;;;;;;;13.07;7.50;;;6.00;99.90;;;;;;5135046;28;20163;-68
2022/10/07 07:16:27;;;;;;;13.60;8.87;;;6.10;99.90;;;;;;5134718;27;20195;-66
2022/10/07 07:18:56;;;;;;;12.17;8.77;;;6.30;99.90;;;;;;5134131;27;20180;-64
2022/10/07 07:21:22;;;;;;;13.23;8.73;;;6.50;99.90;;;;;;5138139;27;20184;-65
2022/10/07 07:23:52;;;;;;;15.47;8.90;;;6.70;99.90;;;;;;5138264;27;20650;-65
2022/10/07 07:26:19;;;;;;;15.67;8.27;;;6.90;99.90;;;;;;5138353;27;20179;-64
2022/10/07 07:28:50;;;;;;;11.53;8.33;;;7.10;99.90;;;;;;5125050;27;20275;-63
2022/10/07 07:31:16;;;;;;;10.70;7.63;;;7.30;99.90;;;;;;5117633;28;20203;-65
2022/10/07 07:33:42;;;;;;;9.40;7.50;;;7.50;99.90;;;;;;5117433;28;20172;-66
2022/10/07 07:36:15;;;;;;;18.63;7.93;;;7.70;99.90;;;;;;5118615;28;20171;-67
2022/10/07 07:38:43;;;;;;;13.00;7.53;;;7.90;99.90;;;;;;5138755;27;20152;-67
2022/10/07 07:41:09;;;;;;;11.87;7.63;;;8.10;99.90;;;;;;5136518;27;20211;-66
2022/10/07 07:43:35;;;;;;;13.67;8.70;;;8.30;99.90;;;;;;5138145;27;20160;-67
2022/10/07 07:46:01;;;;;;;12.90;6.97;;;8.40;99.90;;;;;;5137716;27;20716;-67
2022/10/07 07:48:27;;;;;;;13.70;8.40;;;8.70;99.90;;;;;;5136323;27;20188;-67
2022/10/07 07:50:53;;;;;;;12.93;7.40;;;8.90;99.90;;;;;;5136320;27;20554;-67
2022/10/07 07:53:20;;;;;;;13.83;7.03;;;9.10;99.90;;;;;;5137602;27;20179;-67
2022/10/07 07:55:56;;;;;;;9.47;7.13;;;9.40;99.90;;;;;;5136287;27;20187;-67
2022/10/07 07:58:23;;;;;;;13.33;6.20;;;9.60;99.90;;;;;;5128736;27;20568;-68
2022/10/07 08:01:04;;;;;;;8.77;6.03;;;9.80;99.90;;;;;;5116853;28;20253;-67
2022/10/07 08:03:31;;;;;;;10.37;6.33;;;9.90;99.90;;;;;;5116807;28;20190;-67
2022/10/07 08:06:01;;;;;;;7.40;5.70;;;10.10;99.90;;;;;;5115719;28;20180;-67
2022/10/07 08:08:29;;;;;;;10.87;6.43;;;10.20;99.90;;;;;;5136771;27;20212;-67
2022/10/07 08:10:54;;;;;;;7.83;5.63;;;10.30;99.90;;;;;;5137267;27;20195;-67
2022/10/07 08:13:20;;;;;;;8.63;5.83;;;10.50;99.90;;;;;;5137153;27;20679;-67
2022/10/07 08:15:46;;;;;;;8.77;5.70;;;10.70;99.90;;;;;;5137474;27;20156;-67
2022/10/07 08:18:11;;;;;;;9.47;5.43;;;10.80;99.90;;;;;;5137076;27;20623;-67
2022/10/07 08:20:37;;;;;;;9.63;6.00;;;10.90;99.90;;;;;;5136990;27;20176;-67
2022/10/07 08:23:04;;;;;;;8.10;5.70;;;11.10;99.90;;;;;;5137317;27;20233;-70
2022/10/07 08:25:29;;;;;;;8.73;5.97;;;11.30;99.90;;;;;;5137021;27;20220;-65
2022/10/07 08:27:55;;;;;;;10.10;5.60;;;11.60;99.90;;;;;;5131877;27;20200;-65
2022/10/07 08:30:22;;;;;;;8.87;5.23;;;11.80;99.90;;;;;;5116408;28;20214;-65
2022/10/07 08:32:48;;;;;;;12.73;5.07;;;12.00;99.90;;;;;;5116067;28;20169;-65
2022/10/07 08:35:14;;;;;;;11.30;5.20;;;12.10;99.90;;;;;;5116206;28;20183;-65
2022/10/07 08:37:40;;;;;;;8.80;5.47;;;12.20;99.90;;;;;;5129711;27;20235;-65
2022/10/07 08:40:06;;;;;;;10.33;5.33;;;12.20;99.90;;;;;;5136691;27;20648;-65
2022/10/07 08:42:39;;;;;;;12.43;5.60;;;12.30;99.90;;;;;;5136319;27;20215;-65
2022/10/07 08:45:09;;;;;;;12.77;5.23;;;12.50;99.90;;;;;;5136884;27;20220;-65
2022/10/07 08:47:42;;;;;;;20.08;5.15;;;12.60;99.90;;;;;;5136289;27;20263;-65
2022/10/07 08:50:18;;;;;;;8.00;5.07;;;12.60;99.90;;;;;;5136496;27;20231;-65
2022/10/07 08:52:50;;;;;;;11.03;5.47;;;12.80;99.90;;;;;;5136504;27;20187;-65
2022/10/07 08:55:22;;;;;;;12.03;5.30;;;12.90;99.90;;;;;;5135210;27;20171;-65
2022/10/07 08:58:25;;;;;;;14.50;5.20;;;13.10;99.90;;;;;;5132486;27;20189;-66
2022/10/07 09:01:10;;;;;;;12.82;5.57;;;13.10;99.90;;;;;;5115760;28;20244;-65
2022/10/07 09:03:51;;;;;;;13.55;4.90;;;13.20;99.90;;;;;;5115729;28;20209;-65
2022/10/07 09:06:27;;;;;;;12.83;5.10;;;13.30;99.90;;;;;;5117205;27;20199;-65
2022/10/07 09:09:05;;;;;;;7.78;4.45;;;13.40;99.90;;;;;;5136423;27;20151;-65
2022/10/07 09:11:34;;;;;;;9.90;4.20;;;13.60;99.90;;;;;;5136267;27;20206;-65
2022/10/07 09:14:24;;;;;;;8.82;4.43;;;13.80;99.90;;;;;;5136042;27;20206;-65
2022/10/07 09:16:53;;;;;;;9.48;4.70;;;13.90;99.90;;;;;;5135052;27;20164;-66
2022/10/07 09:19:32;;;;;;;9.90;4.38;;;14.10;99.90;;;;;;5136525;27;20162;-65
2022/10/07 09:22:23;;;;;;;10.57;4.57;;;14.20;99.90;;;;;;5135173;27;20203;-68
2022/10/07 09:24:57;;;;;;;10.27;3.88;;;14.20;99.90;;;;;;5135440;27;20180;-68
2022/10/07 09:27:25;;;;;;;13.05;4.57;;;14.30;99.90;;;;;;5136098;27;20231;-67
2022/10/07 09:29:51;;;;;;;8.93;3.78;;;14.40;99.90;;;;;;5115988;28;20165;-68
2022/10/07 09:32:18;;;;;;;7.05;3.70;;;14.50;99.90;;;;;;5115872;28;20214;-68
2022/10/07 09:34:45;;;;;;;12.27;4.00;;;14.60;99.90;;;;;;5115446;28;20161;-69
2022/10/07 09:37:21;;;;;;;12.38;4.45;;;14.60;99.90;;;;;;5123400;27;20187;-69
2022/10/07 09:40:14;;;;;;;12.60;4.65;;;14.70;99.90;;;;;;5134277;27;20206;-69
2022/10/07 09:42:44;;;;;;;7.03;3.80;;;14.80;99.90;;;;;;5134773;27;20211;-69
2022/10/07 09:45:32;;;;;;;6.80;3.20;;;14.90;99.90;;;;;;5135589;27;20152;-69
2022/10/07 09:48:06;;;;;;;6.10;3.25;;;14.90;99.90;;;;;;5134109;27;20207;-71
2022/10/07 09:50:39;;;;;;;7.28;3.67;;;15.00;99.90;;;;;;5136183;27;20148;-68
2022/10/07 09:53:23;;;;;;;10.93;4.20;;;15.10;99.90;;;;;;5136168;27;20160;-68
2022/10/07 09:55:50;;;;;;;10.73;4.35;;;15.10;99.90;;;;;;5136030;27;20152;-68
2022/10/07 09:58:18;;;;;;;15.55;3.40;;;15.10;99.90;;;;;;5126014;27;20188;-69
2022/10/07 10:00:47;;;;;;;10.55;3.83;;;15.20;99.90;;;;;;5113443;28;20642;-69
2022/10/07 10:03:14;;;;;;;11.00;3.63;;;15.20;99.90;;;;;;5114647;28;20157;-68
2022/10/07 10:05:51;;;;;;;10.88;3.40;;;15.20;99.90;;;;;;5113335;28;20187;-69
2022/10/07 10:08:17;;;;;;;12.30;3.60;;;15.30;99.90;;;;;;5133166;27;20195;-69
2022/10/07 10:10:57;;;;;;;11.27;3.47;;;15.40;99.90;;;;;;5135133;27;20183;-68
2022/10/07 10:13:35;;;;;;;10.80;3.50;;;15.40;99.90;;;;;;5133743;27;20172;-69
2022/10/07 10:16:04;;;;;;;12.73;3.70;;;15.40;99.90;;;;;;5135073;27;20160;-69
2022/10/07 10:18:39;;;;;;;11.57;3.95;;;15.50;99.90;;;;;;5134966;27;20175;-69
2022/10/07 10:21:18;;;;;;;10.43;3.90;;;15.50;99.90;;;;;;5133456;27;20289;-69
2022/10/07 10:24:00;;;;;;;14.45;3.50;;;15.50;99.90;;;;;;5135201;27;20152;-69
2022/10/07 10:26:34;;;;;;;8.50;3.70;;;15.60;99.90;;;;;;5133763;27;20178;-66
2022/10/07 10:29:34;;;;;;;10.88;4.15;;;15.70;99.90;;;;;;5121128;27;20214;-66
2022/10/07 10:32:00;;;;;;;12.63;3.80;;;15.70;99.90;;;;;;5113047;28;20563;-65
2022/10/07 10:34:34;;;;;;;10.88;3.90;;;15.80;99.90;;;;;;5114034;28;20157;-65
2022/10/07 10:37:17;;;;;;;11.98;3.63;;;15.90;99.90;;;;;;5121837;28;20242;-65
2022/10/07 10:40:11;;;;;;;14.60;3.60;;;16.00;99.90;;;;;;5133389;27;20645;-66
2022/10/07 10:42:46;;;;;;;11.63;3.30;;;16.10;99.90;;;;;;5134343;27;20244;-65
2022/10/07 10:45:42;;;;;;;9.77;3.60;;;16.20;99.90;;;;;;5135063;27;20159;-66
2022/10/07 10:48:30;;;;;;;8.57;3.60;;;16.20;99.90;;;;;;5134317;27;20186;-65
2022/10/07 10:51:13;;;;;;;10.38;3.85;;;16.20;99.90;;;;;;5134535;27;20192;-66
2022/10/07 10:53:53;;;;;;;8.30;4.13;;;16.30;99.90;;;;;;5133299;27;20199;-66
2022/10/07 10:56:27;;;;;;;13.80;3.72;;;16.20;99.90;;;;;;5138613;27;20144;-66
2022/10/07 10:59:30;;;;;;;11.85;3.83;;;16.30;99.90;;;;;;5124347;27;20180;-65
2022/10/07 11:02:14;;;;;;;12.15;3.75;;;16.30;99.90;;;;;;5117928;28;20196;-66
2022/10/07 11:04:49;;;;;;;10.07;3.67;;;16.40;99.90;;;;;;5118127;28;20161;-66
2022/10/07 11:07:28;;;;;;;9.35;3.58;;;16.50;99.90;;;;;;5128007;27;20206;-66
2022/10/07 11:10:01;;;;;;;15.00;3.70;;;16.60;99.90;;;;;;5137422;27;20163;-67
2022/10/07 11:12:35;;;;;;;12.32;4.15;;;16.80;99.90;;;;;;5137233;27;20191;-66
2022/10/07 11:15:43;;;;;;;12.60;4.07;;;17.00;99.90;;;;;;5138744;27;20148;-66
2022/10/07 11:18:31;;;;;;;12.32;3.80;;;17.20;99.90;;;;;;5138534;27;20168;-66
2022/10/07 11:20:59;;;;;;;8.90;3.60;;;17.40;99.90;;;;;;5138652;27;20195;-67
2022/10/07 11:23:31;;;;;;;12.60;3.70;;;17.40;99.90;;;;;;5138471;27;20251;-66
2022/10/07 11:26:24;;;;;;;8.57;3.38;;;17.40;99.90;;;;;;5138237;27;20152;-65
2022/10/07 11:28:51;;;;;;;12.40;3.47;;;17.10;99.90;;;;;;5125443;27;20276;-64
2022/10/07 11:31:34;;;;;;;5.85;3.15;;;17.10;99.90;;;;;;5118331;28;20195;-65
2022/10/07 11:34:03;;;;;;;11.85;3.42;;;17.00;99.90;;;;;;5117566;28;20156;-67
2022/10/07 11:36:52;;;;;;;13.52;3.75;;;17.20;99.90;;;;;;5120677;27;20184;-66
2022/10/07 11:39:18;;;;;;;10.18;3.35;;;17.20;99.90;;;;;;5137938;27;20215;-66
2022/10/07 11:41:49;;;;;;;10.88;3.20;;;17.30;99.90;;;;;;5137727;27;20719;-67
2022/10/07 11:44:27;;;;;;;11.68;3.88;;;17.50;99.90;;;;;;5137789;27;20644;-66
2022/10/07 11:46:56;;;;;;;7.18;3.38;;;17.70;99.90;;;;;;5138236;27;20191;-66
2022/10/07 11:49:25;;;;;;;15.02;3.53;;;17.70;99.90;;;;;;5137566;27;20192;-66
2022/10/07 11:52:07;;;;;;;9.80;3.20;;;17.70;99.90;;;;;;5137517;27;20216;-66
2022/10/07 11:55:02;;;;;;;12.25;3.80;;;17.90;99.90;;;;;;5136450;27;20535;-66
2022/10/07 11:57:34;;;;;;;11.77;3.15;;;17.90;99.90;;;;;;5137162;27;20576;-66
2022/10/07 12:00:31;;;;;;;15.02;3.88;;;18.00;99.90;;;;;;5117162;28;20629;-67
2022/10/07 12:03:18;;;;;;;9.95;3.22;;;18.20;99.90;;;;;;5116708;28;20665;-67
2022/10/07 12:05:51;;;;;;;9.60;3.20;;;18.10;99.90;;;;;;5117872;28;20196;-68
2022/10/07 12:08:17;;;;;;;8.50;2.72;;;17.90;99.90;;;;;;5135671;27;20195;-66
2022/10/07 12:10:43;;;;;;;10.20;3.60;;;18.10;99.90;;;;;;5137723;27;20568;-66
2022/10/07 12:13:11;;;;;;;12.23;3.30;;;18.30;99.90;;;;;;5138010;27;20171;-66
2022/10/07 12:15:42;;;;;;;9.20;3.03;;;18.40;99.90;;;;;;5137639;27;20509;-66
2022/10/07 12:18:09;;;;;;;12.55;3.58;;;18.60;99.90;;;;;;5137449;27;20152;-66
2022/10/07 12:20:45;;;;;;;11.60;3.25;;;18.30;99.90;;;;;;5137438;27;20240;-67
2022/10/07 12:23:20;;;;;;;7.15;3.00;;;18.60;99.90;;;;;;5136983;27;20177;-68
2022/10/07 12:26:02;;;;;;;11.00;3.38;;;18.90;99.90;;;;;;5135615;27;20171;-68
2022/10/07 12:28:40;;;;;;;10.68;3.45;;;18.80;99.90;;;;;;5127267;27;20192;-67
2022/10/07 12:31:15;;;;;;;12.98;3.60;;;18.60;99.90;;;;;;5115008;28;20757;-67
2022/10/07 12:34:06;;;;;;;11.30;3.20;;;18.60;99.90;;;;;;5116135;28;20532;-68
2022/10/07 12:36:32;;;;;;;7.82;3.25;;;18.80;99.90;;;;;;5119927;27;20171;-67
2022/10/07 12:39:00;;;;;;;10.57;3.10;;;18.60;99.90;;;;;;5136816;27;20586;-67
2022/10/07 12:41:35;;;;;;;7.28;3.05;;;18.60;99.90;;;;;;5136509;27;20239;-68
2022/10/07 12:44:06;;;;;;;7.80;2.83;;;18.60;99.90;;;;;;5136621;27;20171;-67
2022/10/07 12:46:51;;;;;;;12.10;3.70;;;18.70;99.90;;;;;;5136587;27;20156;-68
2022/10/07 12:49:30;;;;;;;9.65;3.40;;;18.50;99.90;;;;;;5136489;27;20160;-67
2022/10/07 12:52:04;;;;;;;7.95;2.90;;;18.60;99.90;;;;;;5136384;27;20262;-68
2022/10/07 12:54:51;;;;;;;8.30;3.42;;;18.80;99.90;;;;;;5135265;27;20251;-68
2022/10/07 12:57:20;;;;;;;9.05;3.08;;;18.70;99.90;;;;;;5135108;27;20224;-68
2022/10/07 13:00:00;;;;;;;10.05;3.50;;;18.70;99.90;;;;;;5114661;28;20275;-67
2022/10/07 13:02:57;;;;;;;5.65;2.95;;;18.60;99.90;;;;;;5115609;28;20562;-67
2022/10/07 13:05:56;;;;;;;5.65;2.70;;;18.70;99.90;;;;;;5115705;28;20195;-67
2022/10/07 13:08:34;;;;;;;6.53;3.10;;;18.80;99.90;;;;;;5134897;27;20257;-68
2022/10/07 13:11:08;;;;;;;6.55;2.70;;;19.00;99.90;;;;;;5135945;27;20188;-68
2022/10/07 13:14:08;;;;;;;10.38;2.75;;;19.00;99.90;;;;;;5136058;27;20156;-68
2022/10/07 13:16:37;;;;;;;11.23;3.45;;;19.10;99.90;;;;;;5135149;27;20636;-67
2022/10/07 13:19:14;;;;;;;9.10;3.10;;;19.10;99.90;;;;;;5135578;27;20179;-67
2022/10/07 13:21:54;;;;;;;8.95;3.40;;;18.70;99.90;;;;;;5134593;27;20200;-68